Time;durP1;ratioP1;P1;durP2;ratioP2;P2;SDS_P1;SDS_P2;PMS_P1;PMS_P2;Temp;Humidity;BMP_temperature;BMP_pressure;BME280_temperature;BME280_humidity;BME280_pressure;Samples;Min_cycle;Max_cycle;Signal;HPM_P1;HPM_P2
2022/07/15 00:02:18;;;;;;;5.50;1.42;;;10.90;99.90;;;;;;5029369;28;20187;-79
2022/07/15 00:04:48;;;;;;;3.28;1.45;;;11.00;99.90;;;;;;5014189;28;20219;-77
2022/07/15 00:07:20;;;;;;;3.38;1.50;;;11.10;99.90;;;;;;5014171;28;20543;-79
2022/07/15 00:12:37;;;;;;;3.20;1.20;;;11.30;99.90;;;;;;5014236;28;20565;-78
2022/07/15 00:15:11;;;;;;;2.53;1.27;;;11.40;99.90;;;;;;5027474;28;20213;-80
2022/07/15 00:17:43;;;;;;;4.15;1.20;;;11.50;99.90;;;;;;5033544;28;20190;-78
2022/07/15 00:20:15;;;;;;;3.00;1.38;;;11.60;99.90;;;;;;5024048;28;20267;-77
2022/07/15 00:22:47;;;;;;;1.92;1.10;;;11.70;99.90;;;;;;5014049;28;20586;-77
2022/07/15 00:25:18;;;;;;;2.85;1.15;;;11.80;99.90;;;;;;5034185;28;20194;-80
2022/07/15 00:28:00;;;;;;;2.30;1.23;;;11.90;99.90;;;;;;5033118;28;20562;-79
2022/07/15 00:30:35;;;;;;;2.80;1.30;;;11.90;99.90;;;;;;5022020;28;20274;-75
2022/07/15 00:33:06;;;;;;;4.53;1.35;;;12.10;99.90;;;;;;5023969;28;20645;-76
2022/07/15 00:35:39;;;;;;;2.28;1.20;;;12.20;99.90;;;;;;5030604;28;20225;-77
2022/07/15 00:38:12;;;;;;;3.92;1.23;;;12.30;99.90;;;;;;5018553;28;20197;-80
2022/07/15 00:40:48;;;;;;;3.03;1.38;;;12.40;99.90;;;;;;5029023;28;20190;-75
2022/07/15 00:43:19;;;;;;;5.85;1.50;;;12.40;99.90;;;;;;5032969;28;20268;-78
2022/07/15 00:45:52;;;;;;;2.08;1.00;;;12.50;99.90;;;;;;5033128;28;20564;-76
2022/07/15 00:48:23;;;;;;;1.10;1.00;;;12.60;99.90;;;;;;5033366;28;20645;-77
2022/07/15 00:50:54;;;;;;;1.95;1.00;;;12.70;99.90;;;;;;5033363;28;20543;-75
2022/07/15 00:53:25;;;;;;;1.50;1.10;;;12.70;99.90;;;;;;5032977;28;20201;-76
2022/07/15 00:55:59;;;;;;;2.22;1.10;;;12.90;99.90;;;;;;5033181;28;20281;-75
2022/07/15 00:58:32;;;;;;;2.88;1.13;;;13.00;99.90;;;;;;5033123;28;20193;-75
2022/07/15 01:01:06;;;;;;;2.92;1.00;;;13.10;99.90;;;;;;5032956;28;20205;-77
2022/07/15 01:03:36;;;;;;;1.40;1.08;;;13.20;99.90;;;;;;5032924;28;20265;-75
2022/07/15 01:06:07;;;;;;;1.70;0.95;;;13.30;99.90;;;;;;5032746;28;20205;-75
2022/07/15 01:08:38;;;;;;;3.72;1.40;;;13.30;99.90;;;;;;5032794;28;20641;-77
2022/07/15 01:11:09;;;;;;;3.13;1.30;;;13.40;99.90;;;;;;5033228;28;20186;-77
2022/07/15 01:13:40;;;;;;;2.60;0.93;;;13.50;99.90;;;;;;5032183;28;20210;-77
2022/07/15 01:16:13;;;;;;;3.67;1.10;;;13.60;99.90;;;;;;5032428;28;20868;-75
2022/07/15 01:18:43;;;;;;;2.70;0.98;;;13.60;99.90;;;;;;5027119;28;20194;-76
2022/07/15 01:21:16;;;;;;;1.50;1.00;;;13.70;99.90;;;;;;5021908;28;20198;-75
2022/07/15 01:23:47;;;;;;;1.88;1.05;;;13.80;99.90;;;;;;5018237;28;20215;-75
2022/07/15 01:26:18;;;;;;;2.25;0.88;;;13.90;99.90;;;;;;5012863;28;20195;-78
2022/07/15 01:28:49;;;;;;;1.83;0.80;;;14.00;99.90;;;;;;5012658;28;20565;-79
2022/07/15 01:31:19;;;;;;;1.42;0.95;;;14.10;99.90;;;;;;5012234;28;20564;-78
2022/07/15 01:33:52;;;;;;;1.80;0.90;;;14.20;99.90;;;;;;5013715;28;20198;-78
2022/07/15 01:36:25;;;;;;;3.00;1.15;;;14.20;99.90;;;;;;5032267;28;20673;-77
2022/07/15 01:38:55;;;;;;;1.58;0.82;;;14.30;99.90;;;;;;5027454;28;20222;-78
2022/07/15 01:41:26;;;;;;;1.63;0.85;;;14.40;99.90;;;;;;5029784;28;20232;-76
2022/07/15 01:43:57;;;;;;;2.90;1.00;;;14.40;99.90;;;;;;5017346;28;20231;-78
2022/07/15 01:46:27;;;;;;;9.23;2.25;;;14.50;99.90;;;;;;5010627;28;20187;-78
2022/07/15 01:51:52;;;;;;;1.08;0.90;;;14.70;99.90;;;;;;5020183;28;20202;-78
2022/07/15 01:54:23;;;;;;;1.52;0.70;;;14.80;99.90;;;;;;5031778;28;20190;-77
2022/07/15 01:56:55;;;;;;;2.75;0.80;;;14.80;99.90;;;;;;5031754;28;20190;-78
2022/07/15 01:59:27;;;;;;;2.72;0.90;;;14.80;99.90;;;;;;5032143;28;20665;-79
2022/07/15 02:01:58;;;;;;;1.77;0.80;;;14.80;99.90;;;;;;5031631;28;20199;-79
2022/07/15 02:04:29;;;;;;;2.17;0.77;;;14.90;99.90;;;;;;5030817;28;20217;-80
2022/07/15 02:07:02;;;;;;;1.50;0.85;;;14.90;99.90;;;;;;5031887;28;20195;-78
2022/07/15 02:09:33;;;;;;;1.85;0.88;;;15.00;99.90;;;;;;5032110;28;20212;-78
2022/07/15 02:12:04;;;;;;;1.55;1.17;;;15.00;99.90;;;;;;5031079;28;20592;-78
2022/07/15 02:14:35;;;;;;;2.25;0.90;;;15.10;99.90;;;;;;5032305;28;20217;-77
2022/07/15 02:17:07;;;;;;;1.48;0.80;;;15.20;99.90;;;;;;5031902;28;20230;-78
2022/07/15 02:19:37;;;;;;;2.17;0.90;;;15.20;99.90;;;;;;5032332;28;20252;-77
2022/07/15 02:22:10;;;;;;;1.95;0.88;;;15.30;99.90;;;;;;5032091;28;20191;-79
2022/07/15 02:24:42;;;;;;;2.90;0.82;;;15.30;99.90;;;;;;5031438;28;20681;-78
2022/07/15 02:27:12;;;;;;;2.92;1.10;;;15.40;99.90;;;;;;5030922;28;20187;-79
2022/07/15 02:29:43;;;;;;;2.47;0.75;;;15.50;99.90;;;;;;5028963;28;20199;-77
2022/07/15 02:32:14;;;;;;;1.23;0.70;;;15.50;99.90;;;;;;5027308;28;20194;-78
2022/07/15 02:34:44;;;;;;;4.65;0.60;;;15.60;99.90;;;;;;5029315;28;20193;-78
2022/07/15 02:37:17;;;;;;;2.60;0.60;;;15.50;99.90;;;;;;5031812;28;20231;-78
2022/07/15 02:39:48;;;;;;;1.85;0.70;;;15.50;99.90;;;;;;5031047;28;20229;-78
2022/07/15 02:42:18;;;;;;;5.45;3.22;;;15.60;99.90;;;;;;5032901;28;20191;-79
2022/07/15 02:44:50;;;;;;;2.53;0.82;;;15.70;99.90;;;;;;5034512;28;20221;-77
2022/07/15 02:47:20;;;;;;;1.55;0.70;;;15.70;99.90;;;;;;5034655;28;20226;-78
2022/07/15 02:49:51;;;;;;;0.90;0.80;;;15.80;99.90;;;;;;5035226;28;20202;-77
2022/07/15 02:52:24;;;;;;;1.70;0.70;;;15.80;99.90;;;;;;5034933;28;20579;-78
2022/07/15 02:54:54;;;;;;;1.58;0.77;;;15.80;99.90;;;;;;5033963;28;20191;-78
2022/07/15 02:57:25;;;;;;;2.65;0.73;;;15.80;99.90;;;;;;5032982;28;20221;-79
2022/07/15 02:59:56;;;;;;;1.67;0.75;;;15.80;99.90;;;;;;5034200;28;20190;-78
2022/07/15 03:02:26;;;;;;;1.67;0.63;;;15.80;99.90;;;;;;5034528;28;20642;-78
2022/07/15 03:04:57;;;;;;;1.60;0.68;;;15.90;99.90;;;;;;5035398;28;20230;-77
2022/07/15 03:07:30;;;;;;;0.77;0.70;;;15.80;99.90;;;;;;5035059;28;20190;-78
2022/07/15 03:10:01;;;;;;;0.75;0.55;;;15.90;99.90;;;;;;5033786;28;20262;-77
2022/07/15 03:12:32;;;;;;;1.25;0.70;;;15.90;99.90;;;;;;5034149;28;20545;-78
2022/07/15 03:15:03;;;;;;;3.80;1.15;;;15.80;99.90;;;;;;5033933;28;20190;-78
2022/07/15 03:17:34;;;;;;;1.80;0.90;;;15.90;99.90;;;;;;5034291;28;20205;-78
2022/07/15 03:20:04;;;;;;;1.60;0.77;;;16.00;99.90;;;;;;5034423;28;20642;-78
2022/07/15 03:22:37;;;;;;;1.50;0.80;;;16.00;99.90;;;;;;5032670;28;20194;-79
2022/07/15 03:25:09;;;;;;;1.35;0.70;;;16.00;99.90;;;;;;5033321;28;20221;-78
2022/07/15 03:27:39;;;;;;;2.50;1.15;;;16.00;99.90;;;;;;5034204;28;20201;-77
2022/07/15 03:30:11;;;;;;;3.78;1.10;;;16.00;99.90;;;;;;5029192;28;20249;-78
2022/07/15 03:32:41;;;;;;;2.63;0.60;;;16.00;99.90;;;;;;5033842;28;20649;-77
2022/07/15 03:35:12;;;;;;;35.33;17.75;;;16.00;99.90;;;;;;5033571;28;20194;-78
2022/07/15 03:37:45;;;;;;;18.90;9.98;;;16.10;99.90;;;;;;5030652;28;20225;-77
2022/07/15 03:40:16;;;;;;;58.15;31.75;;;16.00;99.90;;;;;;5032393;28;20214;-78
2022/07/15 03:42:46;;;;;;;28.35;15.07;;;16.00;99.90;;;;;;5031023;28;20182;-77
2022/07/15 03:45:17;;;;;;;33.42;17.25;;;16.00;99.90;;;;;;5026844;28;20218;-77
2022/07/15 03:47:48;;;;;;;10.10;5.85;;;15.90;99.90;;;;;;5033067;28;20626;-76
2022/07/15 03:50:19;;;;;;;10.68;4.78;;;16.00;99.90;;;;;;5025735;28;20195;-77
2022/07/15 03:52:51;;;;;;;7.65;4.22;;;16.00;99.90;;;;;;5031737;28;20525;-78
2022/07/15 03:55:22;;;;;;;6.88;3.35;;;16.00;99.90;;;;;;5033339;28;20657;-78
2022/07/15 03:57:53;;;;;;;5.40;2.30;;;16.10;99.90;;;;;;5032928;28;20642;-78
2022/07/15 04:00:23;;;;;;;4.25;2.33;;;16.10;99.90;;;;;;5033700;28;20546;-78
2022/07/15 04:02:54;;;;;;;2.10;1.60;;;16.00;99.90;;;;;;5033278;28;20202;-77
2022/07/15 04:05:25;;;;;;;4.10;1.20;;;16.00;99.90;;;;;;5033015;28;20703;-76
2022/07/15 04:07:58;;;;;;;1.42;1.00;;;16.10;99.90;;;;;;5033050;28;20187;-78
2022/07/15 04:10:28;;;;;;;1.55;0.80;;;16.00;99.90;;;;;;5033071;28;20186;-78
2022/07/15 04:12:59;;;;;;;1.70;0.80;;;16.00;99.90;;;;;;5032898;28;20194;-77
2022/07/15 04:15:30;;;;;;;3.50;1.30;;;15.80;99.90;;;;;;5032489;28;20198;-77
2022/07/15 04:18:01;;;;;;;1.48;0.68;;;15.80;99.90;;;;;;5025788;28;20298;-77
2022/07/15 04:20:32;;;;;;;2.50;0.90;;;15.80;99.90;;;;;;5028690;28;20252;-77
2022/07/15 04:23:04;;;;;;;1.83;1.00;;;15.70;99.90;;;;;;5032823;28;20198;-77
2022/07/15 04:25:35;;;;;;;2.05;0.75;;;15.70;99.90;;;;;;5031866;28;20700;-77
2022/07/15 04:28:06;;;;;;;2.33;0.77;;;15.80;99.90;;;;;;5032022;28;20244;-77
2022/07/15 04:30:37;;;;;;;3.35;0.80;;;15.80;99.90;;;;;;5032164;28;20199;-76
2022/07/15 04:33:08;;;;;;;1.67;0.70;;;15.80;99.90;;;;;;5031169;28;20194;-78
2022/07/15 04:35:39;;;;;;;3.45;1.50;;;15.90;99.90;;;;;;5032667;28;20187;-78
2022/07/15 04:38:12;;;;;;;2.75;1.60;;;16.00;99.90;;;;;;5031843;28;20339;-77
2022/07/15 04:40:43;;;;;;;2.65;1.15;;;15.90;99.90;;;;;;5029890;28;20201;-75
2022/07/15 04:43:14;;;;;;;1.60;0.80;;;15.90;99.90;;;;;;5030421;28;20281;-77
2022/07/15 04:45:44;;;;;;;1.83;0.73;;;15.90;99.90;;;;;;5029828;28;20214;-78
2022/07/15 04:51:02;;;;;;;0.85;0.60;;;15.80;99.90;;;;;;5031959;28;20200;-77
2022/07/15 04:53:34;;;;;;;0.98;0.60;;;15.70;99.90;;;;;;5030539;28;20190;-78
2022/07/15 04:56:05;;;;;;;5.82;0.77;;;15.80;99.90;;;;;;5031812;28;20191;-77
2022/07/15 04:58:36;;;;;;;3.38;0.80;;;15.80;99.90;;;;;;5025058;28;20194;-78
2022/07/15 05:01:07;;;;;;;2.88;0.90;;;15.80;99.90;;;;;;5021944;28;20198;-77
2022/07/15 05:03:38;;;;;;;1.42;0.70;;;15.80;99.90;;;;;;5030319;28;20196;-77
2022/07/15 05:06:08;;;;;;;1.27;0.55;;;15.80;99.90;;;;;;5031115;28;20218;-78
2022/07/15 05:08:41;;;;;;;0.75;0.50;;;15.70;99.90;;;;;;5031449;28;20252;-76
2022/07/15 05:11:12;;;;;;;2.60;0.70;;;15.70;99.90;;;;;;5032060;28;20633;-76
2022/07/15 05:13:43;;;;;;;0.80;0.60;;;15.70;99.90;;;;;;5021319;28;20193;-76
2022/07/15 05:16:13;;;;;;;1.60;0.63;;;15.70;99.90;;;;;;5031917;28;20190;-75
2022/07/15 05:18:44;;;;;;;1.42;1.25;;;15.70;99.90;;;;;;5029334;28;20187;-75
2022/07/15 05:21:15;;;;;;;2.75;0.77;;;15.70;99.90;;;;;;5028417;28;20552;-75
2022/07/15 05:23:47;;;;;;;2.80;0.75;;;15.60;99.90;;;;;;5029150;28;20194;-74
2022/07/15 05:26:18;;;;;;;0.80;0.70;;;15.70;99.90;;;;;;5028733;28;20214;-76
2022/07/15 05:28:49;;;;;;;2.00;0.57;;;15.60;99.90;;;;;;5031740;28;20186;-75
2022/07/15 05:31:19;;;;;;;1.27;0.55;;;15.60;99.90;;;;;;5028880;28;20567;-76
2022/07/15 05:33:52;;;;;;;2.20;0.50;;;15.50;99.90;;;;;;5031318;28;20945;-77
2022/07/15 05:36:22;;;;;;;0.75;0.60;;;15.50;99.90;;;;;;5031380;28;20705;-76
2022/07/15 05:38:55;;;;;;;1.95;0.90;;;15.40;99.90;;;;;;5030979;28;20708;-77
2022/07/15 05:41:26;;;;;;;1.75;0.70;;;15.40;99.90;;;;;;5031267;28;20189;-75
2022/07/15 05:43:56;;;;;;;2.55;0.60;;;15.30;99.90;;;;;;5031254;28;20229;-75
2022/07/15 05:46:27;;;;;;;1.60;0.80;;;15.30;99.90;;;;;;5031526;28;20558;-76
2022/07/15 05:48:58;;;;;;;1.73;1.20;;;15.20;99.90;;;;;;5031131;28;20194;-75
2022/07/15 05:51:31;;;;;;;3.78;1.13;;;15.20;99.90;;;;;;5031421;28;20187;-77
2022/07/15 05:54:04;;;;;;;2.20;0.52;;;15.20;99.90;;;;;;5031541;28;20190;-76
2022/07/15 05:56:35;;;;;;;1.85;0.80;;;15.20;99.90;;;;;;5031226;28;20277;-75
2022/07/15 05:59:06;;;;;;;2.05;0.90;;;15.10;99.90;;;;;;5031508;28;20195;-76
2022/07/15 06:01:36;;;;;;;2.00;0.60;;;15.10;99.90;;;;;;5029534;28;20190;-74
2022/07/15 06:04:07;;;;;;;0.95;0.50;;;15.10;99.90;;;;;;5030535;28;20194;-75
2022/07/15 06:06:38;;;;;;;1.90;0.60;;;15.00;99.90;;;;;;5031133;28;20696;-76
2022/07/15 06:09:11;;;;;;;0.95;0.63;;;15.00;99.90;;;;;;5030606;28;20202;-76
2022/07/15 06:11:41;;;;;;;3.60;0.73;;;14.90;99.90;;;;;;5030497;28;20195;-77
2022/07/15 06:14:12;;;;;;;4.22;0.77;;;14.90;99.90;;;;;;5036573;28;20186;-76
2022/07/15 06:16:43;;;;;;;2.65;0.75;;;14.80;99.90;;;;;;5021416;28;20237;-76
2022/07/15 06:19:14;;;;;;;1.95;0.70;;;14.70;99.90;;;;;;5040128;28;20536;-77
2022/07/15 06:21:44;;;;;;;2.00;0.70;;;14.70;99.90;;;;;;5032863;28;20197;-77
2022/07/15 06:24:17;;;;;;;1.33;0.70;;;14.70;99.90;;;;;;5055552;28;20552;-76
2022/07/15 06:26:47;;;;;;;1.20;0.70;;;14.60;99.90;;;;;;5045449;28;20221;-74
2022/07/15 06:29:18;;;;;;;1.05;0.55;;;14.50;99.90;;;;;;5035743;28;20190;-77
2022/07/15 06:31:49;;;;;;;3.53;1.00;;;14.50;99.90;;;;;;5035451;28;20194;-75
2022/07/15 06:34:20;;;;;;;3.22;0.80;;;14.40;99.90;;;;;;5035632;28;20202;-76
2022/07/15 06:36:50;;;;;;;0.90;0.60;;;14.30;99.90;;;;;;5035240;28;20233;-75
2022/07/15 06:39:23;;;;;;;1.95;0.88;;;14.30;99.90;;;;;;5034917;28;20712;-75
2022/07/15 06:41:54;;;;;;;1.27;0.70;;;14.10;99.90;;;;;;5034961;28;20195;-77
2022/07/15 06:44:24;;;;;;;1.27;0.70;;;14.10;99.90;;;;;;5035202;28;20198;-77
2022/07/15 06:46:55;;;;;;;3.45;1.40;;;13.90;99.90;;;;;;5035190;28;20233;-74
2022/07/15 06:49:26;;;;;;;3.00;0.95;;;13.90;99.90;;;;;;5035349;28;20204;-74
2022/07/15 06:51:58;;;;;;;1.00;0.80;;;13.80;99.90;;;;;;5035203;28;20220;-74
2022/07/15 06:54:31;;;;;;;2.05;0.95;;;13.60;99.90;;;;;;5034958;28;20195;-76
2022/07/15 06:57:03;;;;;;;3.22;0.90;;;13.50;99.90;;;;;;5035130;28;20556;-76
2022/07/15 06:59:34;;;;;;;4.05;1.33;;;13.40;99.90;;;;;;5034952;28;20195;-77
2022/07/15 07:02:04;;;;;;;2.95;1.10;;;13.30;99.90;;;;;;5034840;28;20231;-76
2022/07/15 07:04:35;;;;;;;4.45;1.10;;;13.10;99.90;;;;;;5034983;28;20533;-77
2022/07/15 07:07:06;;;;;;;3.03;1.00;;;13.00;99.90;;;;;;5034815;28;20218;-74
2022/07/15 07:09:38;;;;;;;3.47;1.00;;;12.90;99.90;;;;;;5031149;28;20195;-75
2022/07/15 07:12:10;;;;;;;2.33;0.95;;;12.80;99.90;;;;;;5041262;28;20197;-76
2022/07/15 07:14:40;;;;;;;1.63;0.90;;;12.60;99.90;;;;;;5054571;28;20197;-75
2022/07/15 07:17:11;;;;;;;1.70;1.15;;;12.40;99.90;;;;;;5039562;28;20206;-74
2022/07/15 07:19:42;;;;;;;2.42;1.15;;;12.40;99.90;;;;;;5034589;28;20650;-74
2022/07/15 07:22:12;;;;;;;5.70;1.25;;;12.30;99.90;;;;;;5033990;28;20200;-76
2022/07/15 07:24:45;;;;;;;4.15;1.02;;;12.20;99.90;;;;;;5034071;28;20194;-76
2022/07/15 07:27:16;;;;;;;4.07;1.52;;;12.20;99.90;;;;;;5034762;28;20206;-75
2022/07/15 07:29:47;;;;;;;2.47;1.00;;;12.10;99.90;;;;;;5051619;28;20193;-75
2022/07/15 07:32:17;;;;;;;2.75;1.08;;;12.00;99.90;;;;;;5033668;28;20195;-76
2022/07/15 07:37:26;;;;;;;3.47;1.13;;;12.00;99.90;;;;;;5043242;28;20209;-77
2022/07/15 07:39:59;;;;;;;2.88;1.35;;;11.90;99.90;;;;;;5039946;28;20193;-77
2022/07/15 07:42:30;;;;;;;2.13;1.25;;;11.80;99.90;;;;;;5057807;28;20209;-77
2022/07/15 07:45:01;;;;;;;3.05;1.40;;;11.80;99.90;;;;;;5058354;28;20190;-77
2022/07/15 07:47:32;;;;;;;5.53;2.80;;;11.70;99.90;;;;;;5059370;28;20178;-77
2022/07/15 07:50:02;;;;;;;3.25;1.95;;;11.70;99.90;;;;;;5064634;28;20182;-77
2022/07/15 07:52:33;;;;;;;4.43;2.38;;;11.60;99.90;;;;;;5054604;28;20228;-76
2022/07/15 07:55:09;;;;;;;6.93;3.50;;;11.50;99.90;;;;;;5059334;28;20189;-77
2022/07/15 07:57:50;;;;;;;107.68;58.22;;;11.60;99.90;;;;;;5075299;28;20691;-77
2022/07/15 08:00:21;;;;;;;63.20;38.45;;;11.50;99.90;;;;;;5065871;28;20189;-76
2022/07/15 08:02:52;;;;;;;10.90;5.75;;;11.40;99.90;;;;;;5057788;28;20193;-77
2022/07/15 08:05:23;;;;;;;12.32;7.30;;;11.40;99.90;;;;;;5058918;28;20209;-77
2022/07/15 08:08:07;;;;;;;30.38;19.38;;;11.30;99.90;;;;;;5056084;28;20198;-77
2022/07/15 08:10:39;;;;;;;18.60;11.85;;;11.30;99.90;;;;;;5062146;28;20200;-77
2022/07/15 08:13:10;;;;;;;10.05;6.43;;;11.40;99.90;;;;;;5054742;28;20640;-77
2022/07/15 08:15:41;;;;;;;8.30;4.72;;;11.30;99.90;;;;;;5062585;28;20200;-77
2022/07/15 08:18:12;;;;;;;7.38;4.25;;;11.30;99.90;;;;;;5058906;28;20456;-77
2022/07/15 08:20:43;;;;;;;5.70;3.15;;;11.30;99.90;;;;;;5053831;28;20276;-77
2022/07/15 08:23:19;;;;;;;5.90;2.60;;;11.30;99.90;;;;;;5060062;28;20199;-77
2022/07/15 08:25:53;;;;;;;6.15;3.20;;;11.20;99.90;;;;;;5058470;28;21017;-77
2022/07/15 08:28:24;;;;;;;6.43;3.33;;;11.20;99.90;;;;;;5054668;28;20858;-77
2022/07/15 08:30:54;;;;;;;6.30;3.25;;;11.20;99.90;;;;;;5058200;28;20193;-77
2022/07/15 08:33:25;;;;;;;3.92;2.60;;;11.10;99.90;;;;;;5062966;28;20193;-77
2022/07/15 08:35:56;;;;;;;6.70;2.70;;;11.10;99.90;;;;;;5061493;28;20201;-77
2022/07/15 08:38:27;;;;;;;4.47;2.55;;;11.00;99.90;;;;;;5056647;28;20280;-77
2022/07/15 08:41:00;;;;;;;6.25;2.83;;;11.00;99.90;;;;;;5054528;28;20196;-77
2022/07/15 08:43:32;;;;;;;5.25;2.72;;;10.80;99.90;;;;;;5052832;28;20281;-77
2022/07/15 08:46:03;;;;;;;7.65;2.70;;;10.80;99.90;;;;;;5060533;28;20562;-77
2022/07/15 08:48:37;;;;;;;6.38;3.40;;;10.70;99.90;;;;;;5068003;28;20197;-77
2022/07/15 08:51:09;;;;;;;5.55;3.13;;;10.70;99.90;;;;;;5056481;28;20210;-77
2022/07/15 08:53:40;;;;;;;7.53;3.42;;;10.70;99.90;;;;;;5063221;28;20668;-77
2022/07/15 08:56:12;;;;;;;7.30;3.60;;;10.60;99.90;;;;;;5059487;28;20198;-77
2022/07/15 08:58:44;;;;;;;9.20;3.65;;;10.60;99.90;;;;;;5062381;28;20197;-77
2022/07/15 09:01:14;;;;;;;7.22;3.38;;;10.60;99.90;;;;;;5060236;28;20698;-77
2022/07/15 09:03:46;;;;;;;6.20;3.28;;;10.50;99.90;;;;;;5060981;28;20640;-77
2022/07/15 09:06:36;;;;;;;5.75;3.03;;;10.50;99.90;;;;;;5064006;28;20210;-77
2022/07/15 09:09:29;;;;;;;4.85;3.20;;;10.60;99.90;;;;;;5058728;28;21022;-77
2022/07/15 09:12:04;;;;;;;6.72;3.03;;;10.50;99.90;;;;;;5051855;28;20189;-76
2022/07/15 09:14:36;;;;;;;8.10;3.28;;;10.40;99.90;;;;;;5052463;28;20663;-76
2022/07/15 09:17:26;;;;;;;6.68;3.10;;;10.40;99.90;;;;;;5063090;28;20554;-77
2022/07/15 09:20:09;;;;;;;6.38;2.78;;;10.30;99.90;;;;;;5055974;28;20254;-77
2022/07/15 09:22:52;;;;;;;6.03;3.10;;;10.30;99.90;;;;;;5062019;28;20225;-77
2022/07/15 09:25:24;;;;;;;4.95;2.78;;;10.30;99.90;;;;;;5058826;28;20202;-76
2022/07/15 09:28:01;;;;;;;6.95;3.10;;;10.30;99.90;;;;;;5047722;28;20289;-77
2022/07/15 09:33:38;;;;;;;7.65;4.22;;;10.30;99.90;;;;;;5059404;28;20323;-77
2022/07/15 09:36:13;;;;;;;7.68;3.88;;;10.20;99.90;;;;;;5056680;28;20304;-77
2022/07/15 09:38:52;;;;;;;6.80;4.00;;;10.10;99.90;;;;;;5045185;28;20200;-77
2022/07/15 09:41:30;;;;;;;7.55;3.92;;;10.10;99.90;;;;;;5054276;28;20192;-77
2022/07/15 09:44:05;;;;;;;9.15;4.50;;;10.10;99.90;;;;;;5058233;28;20213;-77
2022/07/15 09:46:46;;;;;;;9.20;4.53;;;10.10;99.90;;;;;;5058817;28;20216;-77
2022/07/15 09:49:19;;;;;;;7.55;4.65;;;10.00;99.90;;;;;;5032524;28;20190;-76
2022/07/15 09:51:53;;;;;;;8.60;4.85;;;9.80;99.90;;;;;;5034890;28;20229;-77
2022/07/15 09:54:24;;;;;;;7.40;4.70;;;9.90;99.90;;;;;;5064383;28;20620;-77
2022/07/15 09:56:55;;;;;;;8.95;4.95;;;9.90;99.90;;;;;;5064954;28;20204;-77
2022/07/15 09:59:29;;;;;;;8.20;4.60;;;9.90;99.90;;;;;;5069820;28;20233;-76
2022/07/15 10:02:00;;;;;;;9.85;5.20;;;9.90;99.90;;;;;;5071119;28;20288;-77
2022/07/15 10:04:32;;;;;;;10.15;5.32;;;9.80;99.90;;;;;;5065775;28;20234;-77
2022/07/15 10:07:04;;;;;;;7.55;5.28;;;9.80;99.90;;;;;;5067240;28;20670;-77
2022/07/15 10:09:37;;;;;;;8.73;5.55;;;9.80;99.90;;;;;;5058321;28;20229;-77
2022/07/15 10:12:13;;;;;;;11.43;5.90;;;9.80;99.90;;;;;;5060615;28;20196;-77
2022/07/15 10:15:13;;;;;;;9.40;5.15;;;9.90;99.90;;;;;;5063923;28;20195;-77
2022/07/15 10:18:00;;;;;;;7.18;5.00;;;9.80;99.90;;;;;;5066401;28;20231;-77
2022/07/15 10:20:57;;;;;;;11.80;5.65;;;9.80;99.90;;;;;;5063339;28;20189;-77
2022/07/15 10:23:53;;;;;;;8.85;5.40;;;9.70;99.90;;;;;;5064579;28;20192;-77
2022/07/15 10:26:42;;;;;;;9.80;5.20;;;9.70;99.90;;;;;;5064266;28;20208;-77
2022/07/15 10:29:13;;;;;;;11.02;5.30;;;9.70;99.90;;;;;;5072221;28;20196;-77
2022/07/15 10:31:57;;;;;;;10.32;5.60;;;9.70;99.90;;;;;;5059530;28;20545;-77
2022/07/15 10:34:33;;;;;;;11.68;5.05;;;9.70;99.90;;;;;;5063074;28;20232;-76
2022/07/15 10:37:10;;;;;;;8.52;5.20;;;9.60;99.90;;;;;;5058857;28;20306;-77
2022/07/15 10:39:55;;;;;;;8.98;5.18;;;9.60;99.90;;;;;;5068606;28;20204;-77
2022/07/15 10:42:26;;;;;;;8.13;4.80;;;9.50;99.90;;;;;;5064686;28;20595;-76
2022/07/15 10:45:11;;;;;;;8.10;4.75;;;9.50;99.90;;;;;;5064377;28;20201;-76
2022/07/15 10:47:43;;;;;;;9.60;5.45;;;9.50;99.90;;;;;;5059251;28;20221;-77
2022/07/15 10:50:41;;;;;;;8.57;5.47;;;9.40;99.90;;;;;;5065985;28;20548;-77
2022/07/15 10:53:25;;;;;;;8.82;5.63;;;9.40;99.90;;;;;;5062066;28;20244;-77
2022/07/15 10:55:56;;;;;;;10.52;5.63;;;9.40;99.90;;;;;;5065434;28;20189;-77
2022/07/15 10:58:26;;;;;;;8.85;5.03;;;9.40;99.90;;;;;;5059505;28;20647;-76
2022/07/15 11:00:58;;;;;;;8.55;5.18;;;9.40;99.90;;;;;;5071734;28;20180;-77
2022/07/15 11:03:31;;;;;;;9.88;4.78;;;9.40;99.90;;;;;;5066662;28;20564;-76
2022/07/15 11:06:08;;;;;;;8.35;4.95;;;9.40;99.90;;;;;;5062282;28;20254;-76
2022/07/15 11:08:55;;;;;;;9.18;5.30;;;9.40;99.90;;;;;;5051508;28;20244;-76
2022/07/15 11:11:52;;;;;;;10.27;5.50;;;9.30;99.90;;;;;;5068521;28;20193;-76
2022/07/15 11:14:54;;;;;;;8.27;4.88;;;9.30;99.90;;;;;;5044694;28;20194;-76
2022/07/15 11:17:41;;;;;;;7.05;4.95;;;9.30;99.90;;;;;;5034909;28;20228;-76
2022/07/15 11:20:16;;;;;;;8.60;4.75;;;9.30;99.90;;;;;;5034868;28;20190;-76
2022/07/15 11:22:49;;;;;;;8.25;5.53;;;9.30;99.90;;;;;;5034640;28;20328;-76
2022/07/15 11:25:24;;;;;;;10.25;5.60;;;9.20;99.90;;;;;;5036896;28;20225;-77
2022/07/15 11:28:12;;;;;;;9.15;5.60;;;9.10;99.90;;;;;;5044353;28;20221;-76
2022/07/15 11:30:47;;;;;;;8.38;5.28;;;9.20;99.90;;;;;;5051214;28;20195;-76
2022/07/15 11:33:20;;;;;;;10.15;5.40;;;9.10;99.90;;;;;;5051743;28;20215;-76
2022/07/15 11:35:55;;;;;;;10.48;5.95;;;9.10;99.90;;;;;;5036606;28;20241;-76
2022/07/15 11:38:27;;;;;;;8.68;5.57;;;9.10;99.90;;;;;;5034617;28;20205;-76
2022/07/15 11:46:48;;;;;;;12.25;6.03;;;8.90;99.90;;;;;;5049188;28;20220;-76
2022/07/15 11:49:29;;;;;;;11.75;5.60;;;8.90;99.90;;;;;;5074271;28;20549;-76
2022/07/15 11:52:03;;;;;;;11.00;6.07;;;8.90;99.90;;;;;;5062674;28;20549;-76
2022/07/15 11:54:37;;;;;;;12.13;6.15;;;8.90;99.90;;;;;;5054033;28;20739;-76
2022/07/15 11:57:09;;;;;;;9.35;5.57;;;9.00;99.90;;;;;;5054150;28;20197;-76
2022/07/15 11:59:40;;;;;;;11.60;6.05;;;9.00;99.90;;;;;;5054106;28;20626;-76
2022/07/15 12:02:12;;;;;;;9.68;5.85;;;9.00;99.90;;;;;;5034004;28;20197;-77
2022/07/15 12:04:43;;;;;;;10.95;6.18;;;9.00;99.90;;;;;;5033301;28;20653;-77
2022/07/15 12:07:16;;;;;;;10.88;6.20;;;9.00;99.90;;;;;;5034008;28;20217;-76
2022/07/15 12:09:48;;;;;;;9.02;5.72;;;8.80;99.90;;;;;;5033655;28;20197;-77
2022/07/15 12:12:19;;;;;;;11.45;6.38;;;8.80;99.90;;;;;;5033925;28;20205;-76
2022/07/15 12:14:52;;;;;;;13.63;7.25;;;8.80;99.90;;;;;;5033380;28;20286;-76
2022/07/15 12:17:23;;;;;;;14.50;6.95;;;8.70;99.90;;;;;;5034655;28;20332;-76
2022/07/15 12:19:55;;;;;;;14.43;8.10;;;8.80;99.90;;;;;;5033500;28;20193;-76
2022/07/15 12:22:30;;;;;;;17.38;9.20;;;8.70;99.90;;;;;;5033696;28;20276;-76
2022/07/15 12:25:00;;;;;;;14.02;8.32;;;8.70;99.90;;;;;;5034769;28;20234;-76
2022/07/15 12:27:38;;;;;;;16.77;8.98;;;8.70;99.90;;;;;;5034670;28;20218;-77
2022/07/15 12:30:11;;;;;;;16.80;9.70;;;8.70;99.90;;;;;;5033660;28;20704;-76
2022/07/15 12:32:42;;;;;;;18.10;10.10;;;8.70;99.90;;;;;;5033458;28;20205;-76
2022/07/15 12:35:13;;;;;;;18.55;9.80;;;8.70;99.90;;;;;;5047115;28;20639;-76
2022/07/15 12:37:54;;;;;;;18.67;11.70;;;8.60;99.90;;;;;;5046540;28;21316;-77
2022/07/15 12:40:26;;;;;;;22.00;10.85;;;8.60;99.90;;;;;;5038563;28;20261;-76
2022/07/15 12:42:57;;;;;;;19.92;11.43;;;8.60;99.90;;;;;;5046412;28;20194;-76
2022/07/15 12:45:29;;;;;;;22.83;12.20;;;8.50;99.90;;;;;;5037124;28;20190;-77
2022/07/15 12:48:05;;;;;;;24.63;12.57;;;8.60;99.90;;;;;;5041207;28;20213;-76
2022/07/15 12:50:37;;;;;;;24.25;13.38;;;8.50;99.90;;;;;;5053128;28;20200;-76
2022/07/15 12:53:10;;;;;;;23.83;13.30;;;8.50;99.90;;;;;;5053284;28;20190;-76
2022/07/15 12:55:47;;;;;;;24.95;13.23;;;8.50;99.90;;;;;;5041728;28;20195;-77
2022/07/15 12:58:19;;;;;;;24.42;13.30;;;8.50;99.90;;;;;;5063263;28;20663;-77
2022/07/15 13:00:49;;;;;;;22.65;13.75;;;8.50;99.90;;;;;;5033199;28;20186;-77
2022/07/15 13:03:21;;;;;;;25.00;14.02;;;8.50;99.90;;;;;;5032820;28;20194;-77
2022/07/15 13:05:54;;;;;;;27.50;14.70;;;8.40;99.90;;;;;;5032851;28;20190;-77
2022/07/15 13:08:28;;;;;;;23.92;13.35;;;8.40;99.90;;;;;;5032871;28;20600;-77
2022/07/15 13:11:00;;;;;;;23.00;13.43;;;8.30;99.90;;;;;;5032801;28;20189;-77
2022/07/15 13:13:33;;;;;;;21.92;13.57;;;8.40;99.90;;;;;;5034016;28;20206;-77
2022/07/15 13:16:05;;;;;;;21.58;12.43;;;8.30;99.90;;;;;;5041474;28;20530;-77
2022/07/15 13:18:36;;;;;;;23.58;12.20;;;8.30;99.90;;;;;;5039055;28;20225;-77
2022/07/15 13:21:07;;;;;;;19.35;11.80;;;8.40;99.90;;;;;;5032735;28;20201;-77
2022/07/15 13:23:40;;;;;;;24.20;12.20;;;8.40;99.90;;;;;;5043733;28;20194;-77
2022/07/15 13:26:11;;;;;;;23.52;13.77;;;8.40;99.90;;;;;;5047765;28;20483;-77
2022/07/15 13:28:41;;;;;;;20.73;12.10;;;8.40;99.90;;;;;;5051674;28;20221;-77
2022/07/15 13:31:12;;;;;;;21.05;11.55;;;8.40;99.90;;;;;;5042088;28;20190;-77
2022/07/15 13:33:43;;;;;;;20.88;11.10;;;8.30;99.90;;;;;;5090350;22;21441;-76
2022/07/15 13:36:14;;;;;;;22.30;11.10;;;8.30;99.90;;;;;;5043289;28;20194;-76